Time;durP1;ratioP1;P1;durP2;ratioP2;P2;SDS_P1;SDS_P2;PMS_P1;PMS_P2;Temp;Humidity;BMP_temperature;BMP_pressure;BME280_temperature;BME280_humidity;BME280_pressure;Samples;Min_cycle;Max_cycle;Signal;HPM_P1;HPM_P2
2022/02/24 00:00:23;;;;;;;6.00;1.77;;;;;;;;;;5045449;28;20107;-73
2022/02/24 00:02:49;;;;;;;7.33;2.33;;;;;;;;;;5046509;28;20050;-73
2022/02/24 00:05:14;;;;;;;11.40;2.37;;;;;;;;;;5047714;28;20068;-73
2022/02/24 00:07:40;;;;;;;6.07;1.90;;;;;;;;;;5047387;28;20389;-73
2022/02/24 00:10:08;;;;;;;5.07;1.80;;;;;;;;;;5047550;28;20462;-73
2022/02/24 00:12:34;;;;;;;5.50;1.87;;;;;;;;;;5047634;28;20024;-73
2022/02/24 00:14:59;;;;;;;10.60;2.33;;;;;;;;;;5048473;28;20183;-73
2022/02/24 00:17:24;;;;;;;5.10;1.70;;;;;;;;;;5049267;28;20021;-74
2022/02/24 00:19:50;;;;;;;7.77;2.50;;;;;;;;;;5048300;28;20025;-73
2022/02/24 00:22:15;;;;;;;8.17;1.87;;;;;;;;;;5048482;28;20039;-73
2022/02/24 00:24:40;;;;;;;5.00;1.60;;;;;;;;;;5047258;28;20029;-73
2022/02/24 00:27:06;;;;;;;6.73;2.40;;;;;;;;;;5048586;28;20029;-73
2022/02/24 00:29:31;;;;;;;4.30;1.73;;;;;;;;;;5046886;28;20060;-73
2022/02/24 00:31:56;;;;;;;6.33;2.27;;;;;;;;;;5052125;28;20017;-73
2022/02/24 00:34:23;;;;;;;7.40;2.40;;;;;;;;;;5052490;28;20027;-73
2022/02/24 00:36:52;;;;;;;9.17;2.17;;;;;;;;;;5052968;28;20036;-73
2022/02/24 00:39:17;;;;;;;8.03;2.10;;;;;;;;;;5055825;28;20119;-73
2022/02/24 00:41:43;;;;;;;5.87;2.03;;;;;;;;;;5053852;28;20032;-74
2022/02/24 00:44:08;;;;;;;9.10;1.90;;;;;;;;;;5053005;28;20021;-73
2022/02/24 00:46:33;;;;;;;8.33;1.97;;;;;;;;;;5053441;28;20454;-73
2022/02/24 00:48:58;;;;;;;12.00;2.13;;;;;;;;;;5053758;28;20032;-74
2022/02/24 00:51:25;;;;;;;3.80;1.50;;;;;;;;;;5055204;28;20077;-73
2022/02/24 00:53:51;;;;;;;6.10;1.77;;;;;;;;;;5055558;28;20028;-74
2022/02/24 00:56:16;;;;;;;6.13;2.27;;;;;;;;;;5055837;28;20029;-73
2022/02/24 00:58:41;;;;;;;7.93;1.80;;;;;;;;;;5055220;28;20036;-73
2022/02/24 01:01:06;;;;;;;5.10;2.10;;;;;;;;;;5055316;28;20021;-73
2022/02/24 01:03:32;;;;;;;4.07;1.77;;;;;;;;;;5054304;28;20410;-73
2022/02/24 01:05:57;;;;;;;11.37;2.23;;;;;;;;;;5055268;28;20025;-74
2022/02/24 01:08:22;;;;;;;4.87;2.00;;;;;;;;;;5053413;28;20496;-74
2022/02/24 01:10:47;;;;;;;4.93;1.47;;;;;;;;;;5054741;28;20032;-73
2022/02/24 01:13:13;;;;;;;6.13;2.43;;;;;;;;;;5053961;28;20024;-73
2022/02/24 01:15:41;;;;;;;12.43;3.30;;;;;;;;;;5056910;28;20332;-73
2022/02/24 01:18:07;;;;;;;2.57;1.50;;;;;;;;;;5054002;28;20021;-73
2022/02/24 01:20:32;;;;;;;7.60;1.87;;;;;;;;;;5055667;28;20051;-73
2022/02/24 01:22:57;;;;;;;6.77;2.37;;;;;;;;;;5054510;28;20036;-73
2022/02/24 01:25:23;;;;;;;13.83;1.90;;;;;;;;;;5055675;28;20017;-73
2022/02/24 01:27:48;;;;;;;7.50;2.63;;;;;;;;;;5057338;28;20021;-73
2022/02/24 01:30:14;;;;;;;9.97;1.80;;;;;;;;;;5042333;28;20021;-73
2022/02/24 01:32:39;;;;;;;9.77;2.07;;;;;;;;;;5054174;28;20041;-74
2022/02/24 01:35:06;;;;;;;7.60;2.20;;;;;;;;;;5048260;28;20086;-74
2022/02/24 01:37:31;;;;;;;11.43;2.73;;;;;;;;;;5052561;28;20584;-73
2022/02/24 01:39:57;;;;;;;6.73;1.93;;;;;;;;;;5053127;28;20062;-73
2022/02/24 01:42:24;;;;;;;7.93;1.67;;;;;;;;;;5055120;28;20720;-73
2022/02/24 01:44:49;;;;;;;5.60;1.70;;;;;;;;;;5040038;28;20025;-73
2022/02/24 01:47:15;;;;;;;9.10;2.17;;;;;;;;;;5052184;28;20029;-73
2022/02/24 01:49:40;;;;;;;6.47;1.80;;;;;;;;;;5052975;28;20513;-73
2022/02/24 01:52:07;;;;;;;8.77;2.30;;;;;;;;;;5036572;28;20075;-73
2022/02/24 01:54:34;;;;;;;4.70;1.70;;;;;;;;;;5050748;28;20100;-73
2022/02/24 01:57:00;;;;;;;8.50;1.77;;;;;;;;;;5051784;28;20021;-73
2022/02/24 01:59:25;;;;;;;9.23;2.10;;;;;;;;;;5040934;28;20583;-73
2022/02/24 02:01:50;;;;;;;13.53;2.70;;;;;;;;;;5045296;28;20035;-72
2022/02/24 02:04:16;;;;;;;7.03;1.83;;;;;;;;;;5043161;22;20137;-69
2022/02/24 02:06:41;;;;;;;9.17;2.10;;;;;;;;;;5041004;28;20040;-69
2022/02/24 02:09:06;;;;;;;9.57;1.93;;;;;;;;;;5038888;28;20257;-69
2022/02/24 02:11:31;;;;;;;5.53;2.30;;;;;;;;;;5041040;28;20087;-69
2022/02/24 02:13:57;;;;;;;10.00;2.00;;;;;;;;;;5040285;28;20021;-69
2022/02/24 02:16:22;;;;;;;9.97;2.60;;;;;;;;;;5038396;28;20025;-69
2022/02/24 02:18:48;;;;;;;9.03;2.13;;;;;;;;;;5034972;28;20041;-69
2022/02/24 02:21:14;;;;;;;5.43;2.00;;;;;;;;;;5040855;28;20025;-69
2022/02/24 02:23:39;;;;;;;5.87;1.70;;;;;;;;;;5036370;28;20044;-69
2022/02/24 02:26:04;;;;;;;6.97;2.00;;;;;;;;;;5041316;28;20028;-69
2022/02/24 02:28:29;;;;;;;5.60;1.90;;;;;;;;;;5041130;28;20389;-69
2022/02/24 02:30:55;;;;;;;11.77;2.23;;;;;;;;;;5041105;28;20094;-69
2022/02/24 02:33:20;;;;;;;6.60;2.20;;;;;;;;;;5037814;28;20036;-68
2022/02/24 02:35:45;;;;;;;10.33;2.10;;;;;;;;;;5037671;28;20416;-69
2022/02/24 02:38:12;;;;;;;5.40;2.00;;;;;;;;;;5038397;28;20098;-69
2022/02/24 02:40:38;;;;;;;6.50;2.13;;;;;;;;;;5041524;28;20419;-69
2022/02/24 02:43:12;;;;;;;7.27;2.40;;;;;;;;;;5040309;28;20028;-69
2022/02/24 02:45:37;;;;;;;5.67;2.43;;;;;;;;;;5040973;28;20025;-69
2022/02/24 02:48:04;;;;;;;8.30;2.37;;;;;;;;;;5035472;28;20032;-69
2022/02/24 02:50:30;;;;;;;7.83;1.77;;;;;;;;;;5038670;28;20013;-69
2022/02/24 02:52:55;;;;;;;9.10;2.77;;;;;;;;;;5036798;28;20082;-69
2022/02/24 02:55:21;;;;;;;10.70;2.20;;;;;;;;;;5037579;28;20040;-69
2022/02/24 02:57:47;;;;;;;5.70;2.13;;;;;;;;;;5037731;28;20541;-69
2022/02/24 03:00:13;;;;;;;4.87;2.17;;;;;;;;;;5037971;28;20025;-69
2022/02/24 03:02:38;;;;;;;5.80;2.53;;;;;;;;;;5038865;28;20028;-69
2022/02/24 03:05:04;;;;;;;7.70;2.23;;;;;;;;;;5033353;28;20049;-69
2022/02/24 03:07:29;;;;;;;9.30;2.23;;;;;;;;;;5040973;28;20358;-68
2022/02/24 03:09:55;;;;;;;8.17;2.30;;;;;;;;;;5040546;28;20021;-67
2022/02/24 03:12:20;;;;;;;14.67;2.73;;;;;;;;;;5036367;28;20049;-69
2022/02/24 03:14:46;;;;;;;16.13;2.80;;;;;;;;;;5036159;28;20612;-69
2022/02/24 03:17:12;;;;;;;11.47;2.37;;;;;;;;;;5040871;28;20021;-69
2022/02/24 03:19:37;;;;;;;5.77;2.03;;;;;;;;;;5040024;28;20081;-69
2022/02/24 03:22:06;;;;;;;6.77;2.47;;;;;;;;;;5039883;28;20452;-69
2022/02/24 03:24:31;;;;;;;10.33;2.27;;;;;;;;;;5038540;28;20252;-71
2022/02/24 03:26:56;;;;;;;9.80;3.40;;;;;;;;;;5040226;28;20712;-71
2022/02/24 03:29:21;;;;;;;5.80;2.10;;;;;;;;;;5038662;28;20503;-68
2022/02/24 03:31:47;;;;;;;6.67;2.40;;;;;;;;;;5040013;28;20370;-68
2022/02/24 03:34:12;;;;;;;7.07;1.93;;;;;;;;;;5038848;28;20027;-69
2022/02/24 03:36:37;;;;;;;7.63;2.20;;;;;;;;;;5038761;28;20017;-68
2022/02/24 03:39:03;;;;;;;5.33;1.97;;;;;;;;;;5039340;28;20035;-68
2022/02/24 03:41:29;;;;;;;7.93;2.30;;;;;;;;;;5025960;28;20028;-70
2022/02/24 03:43:54;;;;;;;8.07;2.43;;;;;;;;;;5026825;28;20102;-71
2022/02/24 03:46:20;;;;;;;8.27;2.70;;;;;;;;;;5038999;28;20039;-71
2022/02/24 03:48:46;;;;;;;8.37;2.50;;;;;;;;;;5031221;28;20020;-71
2022/02/24 03:51:11;;;;;;;8.73;2.70;;;;;;;;;;5038938;28;20025;-71
2022/02/24 03:53:36;;;;;;;8.37;2.80;;;;;;;;;;5038547;28;20024;-71
2022/02/24 03:56:02;;;;;;;8.83;2.40;;;;;;;;;;5038724;28;20040;-71
2022/02/24 03:58:27;;;;;;;6.67;2.50;;;;;;;;;;5032962;28;20113;-71
2022/02/24 04:00:52;;;;;;;9.47;3.10;;;;;;;;;;5035764;28;20052;-69
2022/02/24 04:03:17;;;;;;;10.93;2.70;;;;;;;;;;5033610;28;20269;-70
2022/02/24 04:05:43;;;;;;;7.50;2.70;;;;;;;;;;5034676;28;20661;-70
2022/02/24 04:08:08;;;;;;;5.77;2.40;;;;;;;;;;5033832;28;20466;-70
2022/02/24 04:10:33;;;;;;;7.53;2.20;;;;;;;;;;5038623;28;20376;-70
2022/02/24 04:12:58;;;;;;;8.47;2.00;;;;;;;;;;5034662;28;20025;-70
2022/02/24 04:15:24;;;;;;;10.23;2.80;;;;;;;;;;5039362;28;20052;-70
2022/02/24 04:17:49;;;;;;;7.80;2.50;;;;;;;;;;5038862;28;20067;-70
2022/02/24 04:20:14;;;;;;;9.13;3.00;;;;;;;;;;5031397;28;20070;-70
2022/02/24 04:22:39;;;;;;;10.70;2.47;;;;;;;;;;5029843;28;20357;-70
2022/02/24 04:25:05;;;;;;;6.63;2.70;;;;;;;;;;5039022;28;20016;-71
2022/02/24 04:27:30;;;;;;;9.70;2.50;;;;;;;;;;5038174;28;20029;-70
2022/02/24 04:29:55;;;;;;;5.93;2.30;;;;;;;;;;5026058;28;20100;-70
2022/02/24 04:32:21;;;;;;;9.10;3.20;;;;;;;;;;5035974;28;20017;-70
2022/02/24 04:34:46;;;;;;;10.30;2.57;;;;;;;;;;5038873;28;20078;-70
2022/02/24 04:37:11;;;;;;;7.47;2.17;;;;;;;;;;5038823;28;20017;-70
2022/02/24 04:39:36;;;;;;;7.90;3.00;;;;;;;;;;5026902;28;20476;-71
2022/02/24 04:42:02;;;;;;;6.73;2.20;;;;;;;;;;5038591;28;20504;-70
2022/02/24 04:44:27;;;;;;;10.13;2.97;;;;;;;;;;5038877;28;20025;-70
2022/02/24 04:46:52;;;;;;;8.73;2.80;;;;;;;;;;5039012;28;20434;-70
2022/02/24 04:49:17;;;;;;;7.60;2.23;;;;;;;;;;5031374;28;20100;-71
2022/02/24 04:51:43;;;;;;;11.77;2.70;;;;;;;;;;5038864;28;20037;-71
2022/02/24 04:54:08;;;;;;;7.67;2.90;;;;;;;;;;5032770;28;20404;-70
2022/02/24 04:56:33;;;;;;;10.57;3.13;;;;;;;;;;5038929;28;20039;-70
2022/02/24 04:58:58;;;;;;;8.60;3.40;;;;;;;;;;5033324;28;20029;-70
2022/02/24 05:01:24;;;;;;;8.23;3.07;;;;;;;;;;5039168;28;20064;-71
2022/02/24 05:03:49;;;;;;;10.67;3.93;;;;;;;;;;5038318;28;20041;-70
2022/02/24 05:06:14;;;;;;;13.07;3.90;;;;;;;;;;5038693;28;20412;-70
2022/02/24 05:08:39;;;;;;;14.70;3.67;;;;;;;;;;5033509;28;20517;-70
2022/02/24 05:11:05;;;;;;;10.97;3.40;;;;;;;;;;5038563;28;20556;-70
2022/02/24 05:13:30;;;;;;;10.50;3.00;;;;;;;;;;5037984;28;20028;-70
2022/02/24 05:15:55;;;;;;;10.90;3.47;;;;;;;;;;5039121;28;20092;-70
2022/02/24 05:18:21;;;;;;;8.43;3.47;;;;;;;;;;5038046;28;20067;-70
2022/02/24 05:20:46;;;;;;;7.60;2.87;;;;;;;;;;5042471;28;20039;-70
2022/02/24 05:23:11;;;;;;;13.07;3.50;;;;;;;;;;5040132;28;20029;-70
2022/02/24 05:25:37;;;;;;;10.27;3.53;;;;;;;;;;5042184;28;20021;-71
2022/02/24 05:28:06;;;;;;;10.73;3.33;;;;;;;;;;5041356;28;20021;-70
2022/02/24 05:30:31;;;;;;;11.00;3.23;;;;;;;;;;5041386;28;20039;-71
2022/02/24 05:32:57;;;;;;;13.30;3.10;;;;;;;;;;5037287;28;20113;-70
2022/02/24 05:35:22;;;;;;;6.73;3.23;;;;;;;;;;5032913;28;20258;-71
2022/02/24 05:37:47;;;;;;;8.40;2.60;;;;;;;;;;5038898;28;20263;-71
2022/02/24 05:40:12;;;;;;;8.10;3.30;;;;;;;;;;5029709;28;20078;-70
2022/02/24 05:42:38;;;;;;;9.47;2.70;;;;;;;;;;5039779;28;20083;-70
2022/02/24 05:45:03;;;;;;;5.67;2.70;;;;;;;;;;5031918;28;20115;-70
2022/02/24 05:47:28;;;;;;;8.53;2.30;;;;;;;;;;5041110;28;20025;-70
2022/02/24 05:49:53;;;;;;;9.63;3.87;;;;;;;;;;5030620;28;20088;-70
2022/02/24 05:52:19;;;;;;;6.03;2.43;;;;;;;;;;5040423;28;20063;-70
2022/02/24 05:54:47;;;;;;;8.23;2.50;;;;;;;;;;5041169;28;20385;-70
2022/02/24 05:57:12;;;;;;;9.47;2.73;;;;;;;;;;5041314;28;20013;-70
2022/02/24 05:59:37;;;;;;;7.40;2.90;;;;;;;;;;5040927;28;20025;-72
2022/02/24 06:02:02;;;;;;;10.70;2.80;;;;;;;;;;5037064;28;20017;-71
2022/02/24 06:04:28;;;;;;;13.07;2.90;;;;;;;;;;5033408;28;20272;-69
2022/02/24 06:06:54;;;;;;;9.03;2.37;;;;;;;;;;5041371;28;20024;-69
2022/02/24 06:09:20;;;;;;;7.37;2.33;;;;;;;;;;5041025;28;20025;-69
2022/02/24 06:11:49;;;;;;;8.23;3.03;;;;;;;;;;5041759;28;20385;-69
2022/02/24 06:14:15;;;;;;;7.67;2.93;;;;;;;;;;5038059;28;20240;-69
2022/02/24 06:16:40;;;;;;;9.07;2.57;;;;;;;;;;5040617;28;20033;-69
2022/02/24 06:19:06;;;;;;;7.30;2.10;;;;;;;;;;5037974;28;20031;-69
2022/02/24 06:21:31;;;;;;;7.90;2.73;;;;;;;;;;5040596;28;20400;-69
2022/02/24 06:23:56;;;;;;;6.37;2.10;;;;;;;;;;5041015;28;20194;-69
2022/02/24 06:26:22;;;;;;;8.43;2.13;;;;;;;;;;5040757;28;20212;-69
2022/02/24 06:28:47;;;;;;;11.60;2.20;;;;;;;;;;5040187;28;20215;-69
2022/02/24 06:31:12;;;;;;;5.83;2.20;;;;;;;;;;5039554;28;20025;-70
2022/02/24 06:33:37;;;;;;;12.17;1.93;;;;;;;;;;5029438;28;20112;-70
2022/02/24 06:36:03;;;;;;;10.00;2.40;;;;;;;;;;5031537;28;20258;-70
2022/02/24 06:38:28;;;;;;;9.53;2.30;;;;;;;;;;5039254;28;20086;-70
2022/02/24 06:40:54;;;;;;;12.77;2.10;;;;;;;;;;5034864;28;20465;-70
2022/02/24 06:43:20;;;;;;;9.83;2.37;;;;;;;;;;5033984;28;20037;-71
2022/02/24 06:45:45;;;;;;;6.27;1.67;;;;;;;;;;5029187;28;20029;-71
2022/02/24 06:48:10;;;;;;;4.90;1.77;;;;;;;;;;5034555;28;20094;-71
2022/02/24 06:50:35;;;;;;;9.07;2.67;;;;;;;;;;5033925;28;20120;-71
2022/02/24 06:53:01;;;;;;;9.33;2.20;;;;;;;;;;5033961;28;20028;-71
2022/02/24 06:55:26;;;;;;;6.17;2.10;;;;;;;;;;5040479;28;20035;-72
2022/02/24 06:57:54;;;;;;;8.23;2.20;;;;;;;;;;5040614;28;20481;-71
2022/02/24 07:00:21;;;;;;;7.87;2.10;;;;;;;;;;5040340;28;20040;-71
2022/02/24 07:02:46;;;;;;;6.13;2.00;;;;;;;;;;5035804;28;20028;-71
2022/02/24 07:05:11;;;;;;;7.67;2.00;;;;;;;;;;5036300;28;20555;-71
2022/02/24 07:07:37;;;;;;;7.87;2.33;;;;;;;;;;5040299;28;20076;-71
2022/02/24 07:10:04;;;;;;;8.60;2.50;;;;;;;;;;5040415;28;20413;-71
2022/02/24 07:12:29;;;;;;;7.90;1.77;;;;;;;;;;5039620;28;20032;-71
2022/02/24 07:14:55;;;;;;;7.40;1.77;;;;;;;;;;5030321;28;20025;-72
2022/02/24 07:17:20;;;;;;;8.20;2.43;;;;;;;;;;5040140;28;20104;-72
2022/02/24 07:19:45;;;;;;;7.93;2.27;;;;;;;;;;5029748;28;20044;-72
2022/02/24 07:22:11;;;;;;;6.17;2.20;;;;;;;;;;5040430;28;20040;-70
2022/02/24 07:24:36;;;;;;;13.70;3.00;;;;;;;;;;5040271;28;20083;-70
2022/02/24 07:27:01;;;;;;;6.47;1.93;;;;;;;;;;5040143;28;20025;-70
2022/02/24 07:29:26;;;;;;;11.23;2.07;;;;;;;;;;5029718;28;20508;-70
2022/02/24 07:31:52;;;;;;;8.87;1.97;;;;;;;;;;5040368;28;20155;-70
2022/02/24 07:34:17;;;;;;;5.47;2.13;;;;;;;;;;5039950;28;20028;-71
2022/02/24 07:36:43;;;;;;;11.00;3.00;;;;;;;;;;5040238;28;20061;-71
2022/02/24 07:39:12;;;;;;;7.13;2.13;;;;;;;;;;5031714;28;20035;-70
2022/02/24 07:41:38;;;;;;;5.53;1.73;;;;;;;;;;5039053;28;20032;-71
2022/02/24 07:44:04;;;;;;;5.53;1.83;;;;;;;;;;5039600;28;20036;-71
2022/02/24 07:46:29;;;;;;;5.47;1.80;;;;;;;;;;5039935;28;20029;-71
2022/02/24 07:48:55;;;;;;;6.97;1.90;;;;;;;;;;5035979;28;20474;-69
2022/02/24 07:51:20;;;;;;;7.63;1.90;;;;;;;;;;5035886;28;20036;-70
2022/02/24 07:53:45;;;;;;;9.90;1.87;;;;;;;;;;5039492;28;20436;-72
2022/02/24 07:56:11;;;;;;;7.93;2.57;;;;;;;;;;5034541;28;20025;-70
2022/02/24 07:58:36;;;;;;;7.63;2.03;;;;;;;;;;5039203;28;20029;-70
2022/02/24 08:01:01;;;;;;;11.07;2.20;;;;;;;;;;5040033;28;20231;-70
2022/02/24 08:03:27;;;;;;;5.17;1.77;;;;;;;;;;5028488;28;20093;-70
2022/02/24 08:05:54;;;;;;;8.40;1.93;;;;;;;;;;5037833;28;20052;-70
2022/02/24 08:08:19;;;;;;;14.33;2.70;;;;;;;;;;5039546;28;20033;-70
2022/02/24 08:10:44;;;;;;;11.37;2.70;;;;;;;;;;5039600;28;20024;-70
2022/02/24 08:13:10;;;;;;;8.30;2.37;;;;;;;;;;5037724;28;20104;-70
2022/02/24 08:15:35;;;;;;;9.43;2.60;;;;;;;;;;5039667;28;20029;-71
2022/02/24 08:18:00;;;;;;;6.30;2.03;;;;;;;;;;5039285;28;20108;-71
2022/02/24 08:20:25;;;;;;;7.90;2.00;;;;;;;;;;5039674;28;20029;-71
2022/02/24 08:22:51;;;;;;;10.17;2.37;;;;;;;;;;5036077;28;20481;-71
2022/02/24 08:25:20;;;;;;;14.47;3.17;;;;;;;;;;5029590;28;20029;-71
2022/02/24 08:27:47;;;;;;;7.33;2.00;;;;;;;;;;5036777;28;20028;-70
2022/02/24 08:30:13;;;;;;;10.10;3.27;;;;;;;;;;5029045;28;20078;-71
2022/02/24 08:32:39;;;;;;;7.77;2.17;;;;;;;;;;5025563;28;20266;-71
2022/02/24 08:35:05;;;;;;;5.57;2.40;;;;;;;;;;5038972;28;20385;-71
2022/02/24 08:37:30;;;;;;;9.50;2.53;;;;;;;;;;5037792;28;20063;-71
2022/02/24 08:39:56;;;;;;;10.57;2.20;;;;;;;;;;5039447;28;20254;-71
2022/02/24 08:42:25;;;;;;;8.23;2.27;;;;;;;;;;5030409;28;20092;-71
2022/02/24 08:44:51;;;;;;;6.23;2.00;;;;;;;;;;5038599;28;20033;-71
2022/02/24 08:47:18;;;;;;;10.83;2.90;;;;;;;;;;5038965;28;20108;-71
2022/02/24 08:49:43;;;;;;;8.87;2.43;;;;;;;;;;5031750;28;20029;-71
2022/02/24 08:52:08;;;;;;;8.07;2.83;;;;;;;;;;5040843;28;20029;-71
2022/02/24 08:54:34;;;;;;;7.70;2.20;;;;;;;;;;5036282;28;20100;-71
2022/02/24 08:57:02;;;;;;;10.13;2.20;;;;;;;;;;5036790;28;20032;-71
2022/02/24 08:59:27;;;;;;;6.33;2.03;;;;;;;;;;5041428;28;20028;-70
2022/02/24 09:01:53;;;;;;;8.07;2.13;;;;;;;;;;5040823;28;20231;-71
2022/02/24 09:04:18;;;;;;;7.93;2.43;;;;;;;;;;5031326;28;20053;-70
2022/02/24 09:06:43;;;;;;;7.27;1.80;;;;;;;;;;5042099;28;20698;-70
2022/02/24 09:09:09;;;;;;;6.60;2.07;;;;;;;;;;5042410;28;20044;-70
2022/02/24 09:11:34;;;;;;;7.57;2.27;;;;;;;;;;5042792;28;20286;-71
2022/02/24 09:14:00;;;;;;;6.23;1.93;;;;;;;;;;5039473;28;20107;-70
2022/02/24 09:16:26;;;;;;;9.43;2.60;;;;;;;;;;5042865;28;20478;-70
2022/02/24 09:18:51;;;;;;;5.67;1.67;;;;;;;;;;5037672;28;20053;-70
2022/02/24 09:21:17;;;;;;;4.97;2.00;;;;;;;;;;5042751;28;20110;-71
2022/02/24 09:23:42;;;;;;;6.90;2.00;;;;;;;;;;5042484;28;20044;-70
2022/02/24 09:26:07;;;;;;;12.00;2.70;;;;;;;;;;5042476;28;20036;-70
2022/02/24 09:28:32;;;;;;;7.17;2.00;;;;;;;;;;5033667;28;20512;-71
2022/02/24 09:30:58;;;;;;;10.90;2.37;;;;;;;;;;5038273;28;20096;-71
2022/02/24 09:33:23;;;;;;;9.27;2.10;;;;;;;;;;5042076;28;20619;-71
2022/02/24 09:35:48;;;;;;;7.27;2.07;;;;;;;;;;5042370;28;20509;-71
2022/02/24 09:38:16;;;;;;;9.23;1.80;;;;;;;;;;5035723;28;20017;-71
2022/02/24 09:40:44;;;;;;;5.17;1.80;;;;;;;;;;5037759;28;20025;-71
2022/02/24 09:43:10;;;;;;;7.93;1.90;;;;;;;;;;5036381;28;20056;-71
2022/02/24 09:45:36;;;;;;;9.13;1.50;;;;;;;;;;5037601;28;20457;-71
2022/02/24 09:48:02;;;;;;;6.33;1.80;;;;;;;;;;5038540;28;20040;-71
2022/02/24 09:50:29;;;;;;;9.30;2.00;;;;;;;;;;5036806;28;20265;-71
2022/02/24 09:52:54;;;;;;;8.93;1.60;;;;;;;;;;5034996;28;20030;-71
2022/02/24 09:55:19;;;;;;;6.00;1.60;;;;;;;;;;5039228;28;20479;-71
2022/02/24 09:57:44;;;;;;;10.40;2.43;;;;;;;;;;5030131;28;20021;-71
2022/02/24 10:00:10;;;;;;;7.67;1.80;;;;;;;;;;5041815;28;20501;-71
2022/02/24 10:02:35;;;;;;;11.17;1.97;;;;;;;;;;5040139;28;20044;-71
2022/02/24 10:05:10;;;;;;;6.27;1.70;;;;;;;;;;5037086;28;20053;-71
2022/02/24 10:07:37;;;;;;;5.50;1.50;;;;;;;;;;5040630;28;20521;-71
2022/02/24 10:10:25;;;;;;;7.73;2.00;;;;;;;;;;5038841;28;20021;-71
2022/02/24 10:13:10;;;;;;;7.77;1.80;;;;;;;;;;5040650;28;20087;-71
2022/02/24 10:15:43;;;;;;;8.30;1.60;;;;;;;;;;5029008;28;20035;-71
2022/02/24 10:18:15;;;;;;;9.23;1.80;;;;;;;;;;5037567;28;20049;-71
2022/02/24 10:20:48;;;;;;;5.63;1.60;;;;;;;;;;5041693;28;20392;-71
2022/02/24 10:23:13;;;;;;;5.17;1.53;;;;;;;;;;5038584;28;20382;-71
2022/02/24 10:25:42;;;;;;;4.07;1.13;;;;;;;;;;5041193;28;20024;-71
2022/02/24 10:28:07;;;;;;;5.13;1.40;;;;;;;;;;5040612;28;20025;-71
2022/02/24 10:30:33;;;;;;;4.77;1.50;;;;;;;;;;5043657;28;20362;-70
2022/02/24 10:33:00;;;;;;;3.83;1.60;;;;;;;;;;5039736;28;20025;-70
2022/02/24 10:35:27;;;;;;;3.53;1.60;;;;;;;;;;5031575;28;20055;-70
2022/02/24 10:37:56;;;;;;;5.10;1.40;;;;;;;;;;5033102;28;20334;-70
2022/02/24 10:40:22;;;;;;;5.27;1.50;;;;;;;;;;5023421;28;20421;-71
2022/02/24 10:42:47;;;;;;;5.80;1.50;;;;;;;;;;5037561;28;20025;-71
2022/02/24 10:45:16;;;;;;;6.90;1.80;;;;;;;;;;5039899;28;20031;-70
2022/02/24 10:47:56;;;;;;;3.43;1.13;;;;;;;;;;5039374;28;20018;-71
2022/02/24 10:50:21;;;;;;;5.20;1.33;;;;;;;;;;5036363;28;20020;-70
2022/02/24 10:53:04;;;;;;;4.30;1.40;;;;;;;;;;5037129;28;20051;-70
2022/02/24 10:55:29;;;;;;;5.07;1.30;;;;;;;;;;5038505;28;20155;-70
2022/02/24 10:58:04;;;;;;;7.70;1.80;;;;;;;;;;5033489;28;20112;-70
2022/02/24 11:00:31;;;;;;;4.23;1.67;;;;;;;;;;5040053;28;20220;-71
2022/02/24 11:02:56;;;;;;;5.90;1.50;;;;;;;;;;5036051;28;20426;-70
2022/02/24 11:05:22;;;;;;;9.17;2.00;;;;;;;;;;5039770;28;20045;-70
2022/02/24 11:07:47;;;;;;;6.87;1.40;;;;;;;;;;5037577;28;20108;-70
2022/02/24 11:10:13;;;;;;;8.37;1.17;;;;;;;;;;5039885;28;20021;-71
2022/02/24 11:12:39;;;;;;;6.83;1.50;;;;;;;;;;5033227;28;20290;-71
2022/02/24 11:15:05;;;;;;;5.23;1.10;;;;;;;;;;5039137;28;20102;-70
2022/02/24 11:17:30;;;;;;;3.13;1.30;;;;;;;;;;5039832;28;20305;-71
2022/02/24 11:19:56;;;;;;;4.03;1.10;;;;;;;;;;5038487;28;20009;-70
2022/02/24 11:22:24;;;;;;;4.73;1.23;;;;;;;;;;5040281;28;20516;-70
2022/02/24 11:24:50;;;;;;;4.20;1.20;;;;;;;;;;5038977;28;20293;-70
2022/02/24 11:27:24;;;;;;;7.40;1.33;;;;;;;;;;5040371;28;20025;-70
2022/02/24 11:29:53;;;;;;;5.37;1.10;;;;;;;;;;5040024;28;20047;-70
2022/02/24 11:32:22;;;;;;;5.33;1.40;;;;;;;;;;5040088;28;20017;-70
2022/02/24 11:35:06;;;;;;;9.03;1.50;;;;;;;;;;5027973;28;20029;-70
2022/02/24 11:37:31;;;;;;;4.30;1.47;;;;;;;;;;5038082;28;20033;-70
2022/02/24 11:40:01;;;;;;;6.13;1.40;;;;;;;;;;5036437;28;20129;-70
2022/02/24 11:42:28;;;;;;;6.13;1.20;;;;;;;;;;5036607;28;20096;-70
2022/02/24 11:44:53;;;;;;;5.10;1.30;;;;;;;;;;5030446;28;20405;-70
2022/02/24 11:47:19;;;;;;;4.90;1.20;;;;;;;;;;5039287;28;20587;-70
2022/02/24 11:49:53;;;;;;;1.90;1.17;;;;;;;;;;5035749;28;20052;-70
2022/02/24 11:52:19;;;;;;;2.87;0.93;;;;;;;;;;5034335;28;20399;-70
2022/02/24 11:54:44;;;;;;;5.03;1.27;;;;;;;;;;5038477;28;20032;-70
2022/02/24 11:57:29;;;;;;;3.17;1.40;;;;;;;;;;5039321;28;20029;-70
2022/02/24 11:59:55;;;;;;;2.30;1.10;;;;;;;;;;5039172;28;20548;-72
2022/02/24 12:02:20;;;;;;;3.03;1.00;;;;;;;;;;5039620;28;20108;-70
2022/02/24 12:04:46;;;;;;;4.87;1.43;;;;;;;;;;5034251;28;20171;-70
2022/02/24 12:07:15;;;;;;;5.33;1.20;;;;;;;;;;5039187;28;20502;-70
2022/02/24 12:09:40;;;;;;;4.00;1.10;;;;;;;;;;5035605;28;20083;-71
2022/02/24 12:12:11;;;;;;;2.53;1.10;;;;;;;;;;5039169;28;20051;-71
2022/02/24 12:14:36;;;;;;;2.93;1.20;;;;;;;;;;5038988;28;20017;-71
2022/02/24 12:17:05;;;;;;;2.43;1.10;;;;;;;;;;5039483;28;20469;-71
2022/02/24 12:19:39;;;;;;;3.00;1.07;;;;;;;;;;5038661;28;20051;-71
2022/02/24 12:22:15;;;;;;;9.40;1.60;;;;;;;;;;5038180;28;20017;-71
2022/02/24 12:24:45;;;;;;;4.50;1.20;;;;;;;;;;5038868;28;20397;-71
2022/02/24 12:27:26;;;;;;;4.97;1.40;;;;;;;;;;5038902;28;20642;-71
2022/02/24 12:30:03;;;;;;;7.05;1.33;;;;;;;;;;5036769;28;20037;-71
2022/02/24 12:32:38;;;;;;;7.67;1.57;;;;;;;;;;5035122;28;20086;-71
2022/02/24 12:35:04;;;;;;;3.73;1.30;;;;;;;;;;5028181;28;20568;-71
2022/02/24 12:37:33;;;;;;;4.17;1.30;;;;;;;;;;5027590;28;20195;-71
2022/02/24 12:39:59;;;;;;;3.00;1.50;;;;;;;;;;5039104;28;20115;-71
2022/02/24 12:42:24;;;;;;;2.80;1.23;;;;;;;;;;5038889;28;20059;-71
2022/02/24 12:44:49;;;;;;;3.40;1.57;;;;;;;;;;5038741;28;20521;-71
2022/02/24 12:47:14;;;;;;;4.63;1.60;;;;;;;;;;5039101;28;20236;-71
2022/02/24 12:49:40;;;;;;;6.83;1.73;;;;;;;;;;5031741;28;20039;-71
2022/02/24 12:52:06;;;;;;;5.67;1.70;;;;;;;;;;5039037;28;20056;-71
2022/02/24 12:54:31;;;;;;;2.60;1.40;;;;;;;;;;5032332;28;20029;-71
2022/02/24 12:57:01;;;;;;;3.77;1.63;;;;;;;;;;5032399;28;20057;-71
2022/02/24 12:59:27;;;;;;;6.27;1.70;;;;;;;;;;5038545;28;20209;-71
2022/02/24 13:01:54;;;;;;;3.17;1.30;;;;;;;;;;5038278;28;20021;-71
2022/02/24 13:04:21;;;;;;;4.63;1.40;;;;;;;;;;5034011;28;20201;-71
2022/02/24 13:06:46;;;;;;;7.80;1.60;;;;;;;;;;5038364;28;20025;-71
2022/02/24 13:11:59;;;;;;;6.10;1.77;;;;;;;;;;5033318;28;20186;-71
2022/02/24 13:14:25;;;;;;;3.93;1.63;;;;;;;;;;5033045;28;20025;-71
2022/02/24 13:16:52;;;;;;;5.00;1.50;;;;;;;;;;5039027;28;20392;-71
2022/02/24 13:19:18;;;;;;;4.80;1.30;;;;;;;;;;5038467;28;20021;-71
2022/02/24 13:21:43;;;;;;;3.83;1.23;;;;;;;;;;5038822;28;20437;-71
2022/02/24 13:24:09;;;;;;;6.23;1.40;;;;;;;;;;5037119;28;20033;-71
2022/02/24 13:26:40;;;;;;;7.60;1.57;;;;;;;;;;5038839;28;20060;-72
2022/02/24 13:29:07;;;;;;;5.87;1.53;;;;;;;;;;5037758;28;20410;-71
2022/02/24 13:31:32;;;;;;;5.17;2.00;;;;;;;;;;5038451;28;20064;-71
2022/02/24 13:33:57;;;;;;;4.47;1.40;;;;;;;;;;5038371;28;20064;-71
2022/02/24 13:36:29;;;;;;;5.73;1.50;;;;;;;;;;5038527;28;20033;-71
2022/02/24 13:38:54;;;;;;;;;;;;;;;;;;5029724;28;20040;-71
2022/02/24 13:41:23;;;;;;;2.45;1.25;;;;;;;;;;5041549;28;19905;-71
2022/02/24 13:43:48;;;;;;;5.87;1.50;;;;;;;;;;5038452;28;20024;-71
2022/02/24 13:46:17;;;;;;;3.77;1.17;;;;;;;;;;5039120;28;20032;-71
2022/02/24 13:48:46;;;;;;;5.83;1.40;;;;;;;;;;5037620;28;20044;-71
2022/02/24 13:51:12;;;;;;;4.13;1.37;;;;;;;;;;5037878;28;20013;-71
2022/02/24 13:53:38;;;;;;;5.13;1.40;;;;;;;;;;5040732;28;20025;-71
2022/02/24 13:56:04;;;;;;;2.27;1.07;;;;;;;;;;5041580;28;20051;-71
2022/02/24 13:58:48;;;;;;;4.33;0.90;;;;;;;;;;5035983;28;20028;-71
2022/02/24 14:01:21;;;;;;;5.20;1.43;;;;;;;;;;5041996;28;20330;-71
2022/02/24 14:03:47;;;;;;;3.53;1.30;;;;;;;;;;5040756;28;20037;-70
2022/02/24 14:06:14;;;;;;;4.83;1.17;;;;;;;;;;5041913;28;20302;-71
2022/02/24 14:08:40;;;;;;;6.67;1.07;;;;;;;;;;5041317;28;20749;-71
2022/02/24 14:11:26;;;;;;;2.97;1.00;;;;;;;;;;5032071;28;20017;-75
2022/02/24 14:13:52;;;;;;;3.23;1.37;;;;;;;;;;5028679;28;20029;-72
2022/02/24 14:16:18;;;;;;;2.90;0.90;;;;;;;;;;5029215;28;20029;-72
2022/02/24 14:18:44;;;;;;;3.47;0.80;;;;;;;;;;5040106;28;20017;-70
2022/02/24 14:21:10;;;;;;;4.33;0.93;;;;;;;;;;5040311;28;20036;-70
2022/02/24 14:23:36;;;;;;;3.27;1.00;;;;;;;;;;5040485;28;20108;-70
2022/02/24 14:26:01;;;;;;;4.43;0.90;;;;;;;;;;5030248;28;20025;-70
2022/02/24 14:28:27;;;;;;;4.00;0.90;;;;;;;;;;5031601;28;20520;-70
2022/02/24 14:30:53;;;;;;;6.37;1.27;;;;;;;;;;5034498;28;20017;-70
2022/02/24 14:33:18;;;;;;;4.33;0.80;;;;;;;;;;5029071;28;20176;-70
2022/02/24 14:35:44;;;;;;;2.53;1.00;;;;;;;;;;5035317;28;20127;-71
2022/02/24 14:38:09;;;;;;;4.03;0.93;;;;;;;;;;5040125;28;20668;-71